Time;durP1;ratioP1;P1;durP2;ratioP2;P2;SDS_P1;SDS_P2;PMS_P1;PMS_P2;Temp;Humidity;BMP_temperature;BMP_pressure;BME280_temperature;BME280_humidity;BME280_pressure;Samples;Min_cycle;Max_cycle;Signal;HPM_P1;HPM_P2
2022/12/26 00:00:36;;;;;;;17.23;12.93;;;27.00;69.00;;;;;;5053127;28;20618;-70
2022/12/26 00:03:03;;;;;;;13.93;11.90;;;27.10;68.30;;;;;;5053767;28;20220;-76
2022/12/26 00:05:36;;;;;;;17.87;11.10;;;27.20;68.30;;;;;;5054308;28;20180;-72
2022/12/26 00:08:03;;;;;;;16.57;10.37;;;27.10;67.70;;;;;;5055005;28;20179;-70
2022/12/26 00:10:31;;;;;;;14.07;10.27;;;27.30;67.40;;;;;;5054939;28;20626;-69
2022/12/26 00:12:58;;;;;;;11.60;9.47;;;27.30;66.80;;;;;;5055073;28;20638;-72
2022/12/26 00:15:25;;;;;;;12.37;7.97;;;27.50;66.60;;;;;;5039124;28;20299;-71
2022/12/26 00:17:53;;;;;;;11.90;7.60;;;27.40;66.20;;;;;;5042314;28;20275;-69
2022/12/26 00:20:20;;;;;;;12.03;7.33;;;27.60;66.50;;;;;;5054142;28;20599;-75
2022/12/26 00:22:48;;;;;;;14.47;7.60;;;27.80;65.60;;;;;;5053312;28;20218;-69
2022/12/26 00:25:15;;;;;;;10.67;6.40;;;27.80;65.80;;;;;;5053042;28;20183;-70
2022/12/26 00:27:42;;;;;;;9.57;6.10;;;27.60;65.70;;;;;;5054806;28;20282;-70
2022/12/26 00:30:10;;;;;;;9.03;6.00;;;27.70;65.00;;;;;;5052798;28;20179;-67
2022/12/26 00:32:38;;;;;;;11.10;5.07;;;27.80;64.60;;;;;;5046848;28;20211;-75
2022/12/26 00:35:05;;;;;;;9.83;5.30;;;28.00;64.40;;;;;;5053614;28;20172;-70
2022/12/26 00:37:33;;;;;;;9.07;4.83;;;28.10;63.30;;;;;;5052401;28;20203;-70
2022/12/26 00:40:00;;;;;;;8.70;4.60;;;28.20;61.80;;;;;;5046244;28;20267;-73
2022/12/26 00:42:27;;;;;;;9.47;4.77;;;28.10;61.90;;;;;;5052381;28;20207;-71
2022/12/26 00:44:55;;;;;;;7.70;4.13;;;28.20;61.40;;;;;;5051619;28;20229;-70
2022/12/26 00:47:22;;;;;;;6.60;3.80;;;28.30;60.50;;;;;;5048375;28;20181;-69
2022/12/26 00:49:49;;;;;;;5.60;3.67;;;28.30;59.00;;;;;;5043395;28;20762;-75
2022/12/26 00:52:18;;;;;;;7.13;3.70;;;28.10;59.60;;;;;;5043209;28;20215;-74
2022/12/26 00:54:46;;;;;;;7.80;3.57;;;28.30;60.60;;;;;;5047864;28;20172;-70
2022/12/26 00:57:13;;;;;;;6.50;3.37;;;28.30;59.50;;;;;;5051584;28;20218;-69
2022/12/26 00:59:40;;;;;;;4.33;2.90;;;28.20;61.40;;;;;;5050880;28;20191;-71
2022/12/26 01:02:36;;;;;;;10.37;3.57;;;28.60;59.60;;;;;;5035235;28;20663;-70
2022/12/26 01:04:55;;;;;;;6.47;3.00;;;28.80;60.20;;;;;;5048266;28;20180;-70
2022/12/26 01:07:22;;;;;;;6.87;2.90;;;28.60;59.90;;;;;;5052910;28;20184;-77
2022/12/26 01:09:49;;;;;;;6.57;2.73;;;28.80;59.40;;;;;;5051603;28;20175;-70
2022/12/26 01:12:17;;;;;;;6.23;2.50;;;28.80;59.10;;;;;;5049689;28;20681;-71
2022/12/26 01:14:44;;;;;;;7.17;2.20;;;28.60;59.20;;;;;;5050393;28;20184;-69
2022/12/26 01:17:12;;;;;;;5.50;2.07;;;28.80;59.10;;;;;;5048882;28;20176;-71
2022/12/26 01:19:39;;;;;;;4.47;2.10;;;29.10;58.10;;;;;;5052772;28;20187;-70
2022/12/26 01:22:06;;;;;;;6.40;1.93;;;29.30;57.90;;;;;;5049829;28;20685;-71
2022/12/26 01:24:33;;;;;;;6.03;1.90;;;29.20;58.50;;;;;;5050546;28;20191;-71
2022/12/26 01:27:01;;;;;;;4.57;1.90;;;29.00;58.80;;;;;;5044941;28;20571;-71
2022/12/26 01:29:28;;;;;;;3.57;1.70;;;29.00;58.30;;;;;;5053495;28;20186;-69
2022/12/26 01:31:55;;;;;;;6.20;1.70;;;29.30;58.10;;;;;;5051176;28;20620;-70
2022/12/26 01:34:23;;;;;;;5.97;1.83;;;28.90;58.60;;;;;;5042251;28;20575;-72
2022/12/26 01:36:52;;;;;;;7.83;2.00;;;28.90;58.60;;;;;;5052243;28;20689;-72
2022/12/26 01:39:20;;;;;;;3.53;1.57;;;28.90;58.20;;;;;;5053075;28;20175;-70
2022/12/26 01:41:48;;;;;;;6.83;2.03;;;29.10;58.90;;;;;;5050587;28;20199;-68
2022/12/26 01:44:51;;;;;;;6.57;1.70;;;29.10;58.50;;;;;;5050009;28;20184;-69
2022/12/26 01:47:20;;;;;;;5.30;1.60;;;28.90;58.90;;;;;;5052759;28;20214;-71
2022/12/26 01:49:52;;;;;;;4.83;1.90;;;28.80;60.00;;;;;;5063389;28;20230;-70
2022/12/26 01:52:34;;;;;;;5.67;1.70;;;29.00;58.50;;;;;;5056874;28;20184;-70
2022/12/26 01:55:05;;;;;;;4.03;1.50;;;29.10;58.20;;;;;;5050102;28;20321;-67
2022/12/26 01:57:41;;;;;;;7.97;1.50;;;28.80;60.00;;;;;;5058386;28;20191;-70
2022/12/26 02:00:10;;;;;;;4.57;1.53;;;29.20;58.10;;;;;;5050167;28;20256;-69
2022/12/26 02:05:35;;;;;;;7.13;1.40;;;29.30;58.10;;;;;;5051243;28;20211;-72
2022/12/26 02:08:05;;;;;;;4.23;1.80;;;29.00;59.20;;;;;;5052867;28;20236;-71
2022/12/26 02:10:43;;;;;;;4.87;2.00;;;29.60;59.50;;;;;;5052984;28;20192;-70
2022/12/26 02:13:12;;;;;;;6.10;1.53;;;29.60;58.80;;;;;;5053538;28;20258;-71
2022/12/26 02:15:40;;;;;;;8.40;1.73;;;29.70;57.80;;;;;;5051531;28;20192;-77
2022/12/26 02:18:07;;;;;;;5.37;1.40;;;29.80;57.90;;;;;;5045713;28;20214;-71
2022/12/26 02:20:47;;;;;;;3.70;1.30;;;30.00;55.80;;;;;;5052180;28;20184;-69
2022/12/26 02:23:20;;;;;;;3.97;1.50;;;30.10;54.70;;;;;;5051290;28;20235;-71
2022/12/26 02:26:16;;;;;;;5.70;1.50;;;30.10;55.10;;;;;;5063225;28;20534;-69
2022/12/26 02:29:05;;;;;;;6.43;1.50;;;30.50;54.50;;;;;;5051153;28;20221;-68
2022/12/26 02:31:59;;;;;;;5.57;1.83;;;30.50;53.00;;;;;;5051466;28;20183;-75
2022/12/26 02:34:27;;;;;;;6.07;1.73;;;30.30;53.40;;;;;;5052157;28;20172;-77
2022/12/26 02:37:23;;;;;;;6.33;1.40;;;30.30;53.50;;;;;;5052173;28;20168;-72
2022/12/26 02:40:02;;;;;;;3.33;1.20;;;30.10;53.90;;;;;;5052703;28;20198;-75
2022/12/26 02:42:41;;;;;;;5.30;1.40;;;30.30;54.10;;;;;;5052478;28;20298;-70
2022/12/26 02:48:57;;;;;;;4.40;1.63;;;29.80;55.70;;;;;;5052177;28;20199;-71
2022/12/26 03:15:14;;;;;;;7.00;1.80;;;30.50;55.90;;;;;;5052247;28;20183;-67
2022/12/26 03:18:07;;;;;;;6.10;2.03;;;30.20;56.60;;;;;;5052393;28;20176;-68
2022/12/26 03:20:37;;;;;;;5.53;1.53;;;30.60;56.00;;;;;;5033843;28;20181;-68
2022/12/26 03:23:16;;;;;;;7.03;1.80;;;30.50;55.10;;;;;;5041470;28;20268;-71
2022/12/26 03:28:39;;;;;;;5.00;1.40;;;30.60;54.70;;;;;;5052610;28;20665;-70
2022/12/26 03:31:09;;;;;;;10.48;2.05;;;31.10;53.60;;;;;;5051926;28;20638;-69
2022/12/26 03:36:48;;;;;;;5.20;1.27;;;30.90;54.00;;;;;;5054290;28;20182;-70
2022/12/26 04:19:57;;;;;;;7.40;1.80;;;30.70;57.00;;;;;;5054716;28;20176;-74
2022/12/26 04:46:24;;;;;;;10.13;2.17;;;31.60;54.30;;;;;;5054874;28;20275;-81
2022/12/26 04:51:38;;;;;;;7.47;2.10;;;31.60;54.10;;;;;;5054324;28;20277;-69
2022/12/26 04:54:07;;;;;;;10.30;2.20;;;31.90;53.80;;;;;;5052490;28;20192;-73
2022/12/26 04:56:34;;;;;;;6.18;1.67;;;31.70;52.70;;;;;;5054207;28;20288;-68
2022/12/26 04:59:02;;;;;;;8.52;2.25;;;32.00;51.80;;;;;;5054415;28;20228;-74
2022/12/26 05:09:52;;;;;;;8.20;1.92;;;31.90;51.40;;;;;;5054315;28;20270;-73
2022/12/26 05:12:20;;;;;;;5.82;1.77;;;32.30;51.00;;;;;;5054068;28;20218;-69
2022/12/26 05:14:48;;;;;;;7.43;1.80;;;32.00;49.80;;;;;;5054050;28;20271;-71
2022/12/26 05:31:07;;;;;;;8.52;1.50;;;32.30;47.70;;;;;;5048698;28;20187;-71
2022/12/26 05:36:22;;;;;;;6.45;1.50;;;31.80;48.20;;;;;;5053491;28;20234;-68
2022/12/26 05:38:50;;;;;;;8.43;1.90;;;31.80;50.40;;;;;;5051859;28;20203;-69
2022/12/26 05:41:17;;;;;;;6.22;1.80;;;32.20;48.40;;;;;;5052374;28;20207;-74
2022/12/26 05:43:45;;;;;;;10.80;2.20;;;31.90;49.20;;;;;;5052234;28;20203;-73
2022/12/26 05:46:12;;;;;;;8.30;1.85;;;32.00;48.10;;;;;;5053116;28;20168;-69
2022/12/26 05:48:39;;;;;;;7.78;1.85;;;31.70;47.80;;;;;;5052887;28;20184;-71
2022/12/26 05:51:07;;;;;;;9.82;2.03;;;31.70;48.60;;;;;;5052404;28;20278;-68
2022/12/26 05:53:34;;;;;;;7.65;2.03;;;31.70;49.40;;;;;;5053000;28;20585;-77
2022/12/26 05:56:07;;;;;;;7.00;1.70;;;31.30;49.30;;;;;;5053218;28;20295;-69
2022/12/26 05:58:34;;;;;;;6.03;1.50;;;31.60;49.90;;;;;;5051814;28;20222;-77
2022/12/26 06:01:07;;;;;;;8.27;1.92;;;31.70;49.50;;;;;;5049628;28;20603;-70
2022/12/26 06:03:35;;;;;;;6.10;1.25;;;32.10;48.20;;;;;;5051392;28;20290;-68
2022/12/26 06:06:03;;;;;;;6.72;1.80;;;31.50;47.90;;;;;;5047573;28;20211;-78
2022/12/26 06:08:31;;;;;;;8.85;1.90;;;31.70;48.60;;;;;;5052291;28;20221;-75
2022/12/26 06:11:01;;;;;;;7.45;1.75;;;32.20;48.90;;;;;;5049206;28;20216;-76
2022/12/26 06:13:29;;;;;;;8.10;1.92;;;32.60;46.80;;;;;;5047170;28;20219;-67
2022/12/26 06:15:57;;;;;;;6.15;1.98;;;31.80;47.50;;;;;;5052728;28;20172;-74
2022/12/26 06:18:25;;;;;;;6.63;1.70;;;31.30;49.20;;;;;;5045224;28;20525;-70
2022/12/26 06:20:52;;;;;;;8.05;2.03;;;31.60;47.90;;;;;;5051010;28;20191;-79
2022/12/26 06:23:20;;;;;;;11.00;2.25;;;31.20;48.70;;;;;;5050116;28;20674;-68
2022/12/26 06:25:56;;;;;;;7.47;1.80;;;31.60;48.30;;;;;;5052154;28;20180;-69
2022/12/26 06:28:24;;;;;;;6.68;1.40;;;31.40;47.90;;;;;;5043782;28;20203;-77
2022/12/26 06:30:52;;;;;;;6.50;1.65;;;31.30;47.40;;;;;;5048843;28;20180;-70
2022/12/26 06:33:20;;;;;;;10.45;1.80;;;31.80;46.30;;;;;;5049050;28;20226;-74
2022/12/26 06:35:47;;;;;;;6.28;1.60;;;32.10;46.70;;;;;;5051510;28;20270;-73
2022/12/26 06:38:14;;;;;;;5.93;1.75;;;32.20;46.00;;;;;;5039242;28;20187;-71
2022/12/26 06:40:42;;;;;;;6.15;1.92;;;31.90;46.70;;;;;;5051289;28;20182;-74
2022/12/26 06:43:10;;;;;;;5.40;1.30;;;31.70;47.20;;;;;;5051662;28;20221;-71
2022/12/26 06:45:37;;;;;;;4.40;1.60;;;31.80;46.00;;;;;;5051828;28;20190;-69
2022/12/26 06:48:05;;;;;;;4.55;1.40;;;32.00;45.50;;;;;;5049488;28;20195;-69
2022/12/26 06:50:34;;;;;;;6.15;1.58;;;31.80;45.80;;;;;;5050146;28;20281;-66
2022/12/26 06:53:02;;;;;;;8.93;1.88;;;31.30;46.30;;;;;;5052466;28;20194;-69
2022/12/26 06:55:29;;;;;;;5.30;1.50;;;31.60;46.50;;;;;;5043908;28;20184;-68
2022/12/26 06:57:56;;;;;;;6.68;1.80;;;31.30;46.40;;;;;;5049681;28;20172;-73
2022/12/26 07:00:24;;;;;;;7.93;1.60;;;31.70;45.30;;;;;;5052314;28;20219;-76
2022/12/26 07:02:51;;;;;;;5.90;1.25;;;31.70;45.60;;;;;;5051399;28;20642;-81
2022/12/26 07:05:18;;;;;;;8.82;1.77;;;31.90;45.30;;;;;;5051658;28;20225;-70
2022/12/26 07:07:51;;;;;;;5.95;1.63;;;31.40;46.50;;;;;;5052447;28;20176;-77
2022/12/26 07:10:20;;;;;;;8.50;1.73;;;31.00;47.50;;;;;;5051336;28;20716;-69
2022/12/26 07:12:48;;;;;;;6.43;1.60;;;30.90;48.30;;;;;;5054187;28;20184;-68
2022/12/26 07:15:15;;;;;;;3.55;1.42;;;30.90;47.90;;;;;;5047250;28;20227;-72
2022/12/26 07:17:43;;;;;;;6.70;1.63;;;30.40;50.10;;;;;;5054358;28;20195;-73
2022/12/26 07:20:11;;;;;;;10.60;1.70;;;29.90;50.50;;;;;;5055009;28;20218;-69
2022/12/26 07:22:38;;;;;;;6.63;1.98;;;29.20;52.00;;;;;;5053935;28;20204;-72
2022/12/26 07:25:06;;;;;;;4.07;1.37;;;28.60;52.90;;;;;;5052836;28;20176;-79
2022/12/26 07:27:33;;;;;;;7.50;1.60;;;28.30;53.20;;;;;;5044621;28;20189;-77
2022/12/26 07:30:01;;;;;;;5.00;1.63;;;28.10;54.60;;;;;;5054143;28;20180;-76
2022/12/26 07:32:28;;;;;;;6.83;1.90;;;27.90;55.50;;;;;;5055432;28;20180;-84
2022/12/26 07:34:55;;;;;;;6.97;1.30;;;27.80;56.40;;;;;;5053226;28;20249;-79
2022/12/26 07:37:23;;;;;;;5.17;1.70;;;27.60;56.70;;;;;;5052744;28;20187;-83
2022/12/26 07:39:53;;;;;;;5.73;1.47;;;27.60;57.30;;;;;;5052925;28;20188;-80
2022/12/26 07:42:21;;;;;;;9.47;1.57;;;27.60;56.10;;;;;;5052386;28;20298;-71
2022/12/26 07:44:48;;;;;;;7.47;2.10;;;27.60;57.10;;;;;;5051748;28;20263;-80
2022/12/26 07:47:15;;;;;;;5.40;1.60;;;27.20;58.50;;;;;;5051843;28;20270;-70
2022/12/26 07:49:43;;;;;;;8.90;1.50;;;27.20;57.50;;;;;;5051158;28;20326;-72
2022/12/26 07:52:10;;;;;;;4.40;1.40;;;26.80;57.90;;;;;;5049262;28;20635;-70
2022/12/26 07:54:37;;;;;;;10.97;1.70;;;26.80;57.70;;;;;;5050673;28;20278;-73
2022/12/26 07:57:05;;;;;;;10.40;2.07;;;26.70;58.80;;;;;;5051701;28;20557;-73
2022/12/26 07:59:32;;;;;;;8.13;1.90;;;26.50;60.00;;;;;;5050801;28;20203;-73
2022/12/26 08:02:03;;;;;;;7.83;1.87;;;26.40;60.80;;;;;;5050841;28;20212;-72
2022/12/26 08:04:32;;;;;;;9.30;2.40;;;26.20;61.10;;;;;;5051340;28;20203;-72
2022/12/26 08:06:59;;;;;;;9.80;1.90;;;26.30;61.90;;;;;;5051981;28;20188;-68
2022/12/26 08:09:26;;;;;;;10.73;2.10;;;26.10;62.70;;;;;;5054919;28;20176;-72
2022/12/26 08:11:54;;;;;;;8.17;1.90;;;25.90;63.20;;;;;;5055166;28;20187;-69
2022/12/26 08:14:21;;;;;;;7.37;2.00;;;25.90;63.60;;;;;;5054394;28;20661;-73
2022/12/26 08:16:48;;;;;;;8.13;2.20;;;25.80;64.10;;;;;;5054819;28;20183;-68
2022/12/26 08:19:16;;;;;;;5.90;1.83;;;25.80;64.20;;;;;;5052301;28;20176;-70
2022/12/26 08:21:43;;;;;;;7.90;1.90;;;25.70;64.50;;;;;;5053376;28;20203;-70
2022/12/26 08:24:11;;;;;;;11.73;2.47;;;25.60;64.80;;;;;;5054861;28;20195;-70
2022/12/26 08:26:38;;;;;;;7.47;2.07;;;25.30;65.30;;;;;;5053406;28;20677;-67
2022/12/26 08:29:06;;;;;;;9.63;2.20;;;25.40;65.30;;;;;;5054177;28;20179;-71
2022/12/26 08:31:33;;;;;;;9.00;1.70;;;25.30;65.80;;;;;;5052628;28;20175;-78
2022/12/26 08:34:00;;;;;;;8.73;2.00;;;25.30;65.90;;;;;;5053117;28;20513;-72
2022/12/26 08:36:27;;;;;;;11.17;2.03;;;25.20;66.50;;;;;;5052322;28;20188;-68
2022/12/26 08:38:55;;;;;;;7.80;2.17;;;25.20;67.30;;;;;;5053539;28;20186;-71
2022/12/26 08:41:23;;;;;;;8.33;1.63;;;25.10;68.20;;;;;;5052612;28;20184;-68
2022/12/26 08:43:52;;;;;;;9.67;2.20;;;25.00;68.50;;;;;;5053533;28;20266;-67
2022/12/26 08:46:20;;;;;;;6.03;1.87;;;24.80;68.70;;;;;;5053976;28;20199;-67
2022/12/26 08:48:49;;;;;;;11.20;2.27;;;24.80;69.40;;;;;;5053958;28;20276;-65
2022/12/26 08:51:19;;;;;;;9.50;2.40;;;24.70;70.00;;;;;;5053888;28;20682;-66
2022/12/26 08:53:48;;;;;;;10.10;2.10;;;24.70;70.70;;;;;;5054490;28;20184;-67
2022/12/26 08:56:18;;;;;;;8.53;1.90;;;24.60;71.10;;;;;;5052252;28;20184;-75
2022/12/26 08:58:46;;;;;;;11.37;2.13;;;24.40;71.20;;;;;;5053698;28;20188;-68
2022/12/26 09:01:18;;;;;;;14.10;2.40;;;24.40;71.20;;;;;;5053665;28;20172;-68
2022/12/26 09:03:46;;;;;;;8.03;2.30;;;24.30;71.80;;;;;;5052578;28;20306;-72
2022/12/26 09:06:14;;;;;;;8.57;2.00;;;24.20;72.40;;;;;;5053411;28;20703;-68
2022/12/26 09:08:42;;;;;;;12.40;2.20;;;24.10;73.30;;;;;;5053973;28;20263;-67
2022/12/26 09:11:11;;;;;;;11.37;2.10;;;24.00;73.80;;;;;;5046334;28;20172;-67
2022/12/26 09:13:40;;;;;;;10.17;2.23;;;24.00;74.00;;;;;;5044205;28;20236;-70
2022/12/26 09:16:18;;;;;;;12.17;2.90;;;23.90;74.30;;;;;;5048960;28;20188;-66
2022/12/26 09:18:47;;;;;;;9.20;2.43;;;23.90;74.60;;;;;;5050267;28;20320;-68
2022/12/26 09:21:16;;;;;;;14.20;2.57;;;23.80;74.80;;;;;;5052588;28;20200;-74
2022/12/26 09:23:44;;;;;;;8.93;2.03;;;23.70;75.40;;;;;;5039944;28;20255;-72
2022/12/26 09:26:14;;;;;;;13.37;3.07;;;23.80;75.70;;;;;;5038403;28;20204;-70
2022/12/26 09:28:42;;;;;;;9.27;2.03;;;23.70;76.40;;;;;;5077666;28;20180;-67
2022/12/26 09:31:14;;;;;;;11.47;2.23;;;23.60;76.90;;;;;;5051365;28;20211;-69
2022/12/26 09:33:42;;;;;;;9.17;2.20;;;23.60;77.20;;;;;;5050902;28;20222;-75
2022/12/26 09:36:15;;;;;;;9.90;2.37;;;23.60;77.40;;;;;;5051076;28;20183;-67
2022/12/26 09:38:43;;;;;;;9.80;2.53;;;23.50;77.30;;;;;;5052637;28;20661;-67
2022/12/26 09:41:34;;;;;;;10.90;2.27;;;23.50;77.50;;;;;;5053725;28;20186;-72
2022/12/26 09:44:21;;;;;;;12.60;2.20;;;23.50;77.80;;;;;;5042049;28;20271;-68
2022/12/26 09:47:24;;;;;;;8.53;2.13;;;23.40;78.10;;;;;;5052944;28;20535;-74
2022/12/26 09:50:10;;;;;;;12.17;2.20;;;23.30;78.20;;;;;;5052553;28;20244;-67
2022/12/26 09:52:48;;;;;;;9.03;2.20;;;23.30;78.50;;;;;;5052199;28;20194;-67
2022/12/26 09:55:43;;;;;;;14.87;2.77;;;23.30;78.40;;;;;;5053258;28;20195;-71
2022/12/26 09:58:29;;;;;;;10.00;1.70;;;23.30;78.50;;;;;;5053226;28;20194;-67
2022/12/26 10:01:03;;;;;;;11.37;2.03;;;23.20;78.80;;;;;;5052716;28;20186;-72
2022/12/26 10:03:42;;;;;;;10.37;2.10;;;23.30;78.70;;;;;;5052448;28;20218;-67
2022/12/26 10:06:13;;;;;;;11.73;2.40;;;23.30;79.00;;;;;;5052794;28;20233;-80
2022/12/26 10:09:09;;;;;;;11.30;2.43;;;23.20;78.90;;;;;;5051368;28;20275;-77
2022/12/26 10:11:54;;;;;;;7.30;1.57;;;23.10;79.20;;;;;;5047523;28;20215;-79
2022/12/26 10:14:47;;;;;;;10.60;2.20;;;23.10;79.50;;;;;;5049420;28;20199;-76
2022/12/26 10:17:33;;;;;;;12.27;2.57;;;23.10;79.50;;;;;;5051380;28;20194;-72
2022/12/26 10:20:18;;;;;;;11.30;2.37;;;23.00;79.70;;;;;;5052689;28;20555;-71
2022/12/26 10:23:21;;;;;;;14.93;2.63;;;23.00;80.10;;;;;;5048200;28;20232;-69
2022/12/26 10:26:17;;;;;;;7.60;2.23;;;23.00;80.00;;;;;;5050907;28;20533;-70
2022/12/26 10:28:44;;;;;;;7.73;2.10;;;23.00;80.30;;;;;;5008806;28;20188;-71
2022/12/26 10:31:22;;;;;;;11.63;2.20;;;22.90;80.20;;;;;;5050087;28;20502;-71
2022/12/26 10:33:56;;;;;;;9.47;2.50;;;22.90;80.70;;;;;;5060524;28;20192;-68
2022/12/26 10:36:46;;;;;;;11.40;2.17;;;22.90;81.00;;;;;;5052029;28;20249;-75
2022/12/26 10:39:44;;;;;;;13.03;2.30;;;22.90;81.20;;;;;;5050088;28;20207;-68
2022/12/26 10:42:39;;;;;;;13.27;2.50;;;22.80;81.50;;;;;;5045190;28;20207;-67
2022/12/26 10:45:23;;;;;;;7.17;2.17;;;22.80;81.80;;;;;;5049401;28;20220;-72
2022/12/26 10:47:52;;;;;;;10.47;2.23;;;22.70;82.20;;;;;;5055639;28;20186;-67
2022/12/26 10:50:31;;;;;;;10.50;2.20;;;22.80;82.50;;;;;;5056325;28;20222;-69
2022/12/26 10:53:00;;;;;;;9.57;2.10;;;22.70;82.60;;;;;;5055782;28;20187;-67
2022/12/26 10:55:32;;;;;;;9.40;2.23;;;22.70;82.60;;;;;;5055939;28;20653;-76
2022/12/26 10:58:10;;;;;;;12.20;2.10;;;22.70;83.00;;;;;;5045270;28;20176;-69
2022/12/26 11:00:38;;;;;;;12.60;2.60;;;22.60;83.20;;;;;;5048472;28;20534;-70
2022/12/26 11:03:08;;;;;;;9.83;2.23;;;22.70;83.30;;;;;;5051045;28;20216;-77
2022/12/26 11:05:38;;;;;;;9.93;2.10;;;22.60;83.70;;;;;;5048506;28;20188;-69
2022/12/26 11:08:15;;;;;;;12.23;2.37;;;22.60;83.90;;;;;;5046569;28;20188;-69
2022/12/26 11:11:00;;;;;;;16.00;3.13;;;22.50;84.10;;;;;;5051004;28;20194;-71
2022/12/26 11:13:28;;;;;;;10.53;2.53;;;22.50;84.20;;;;;;5054904;28;20178;-71
2022/12/26 11:15:56;;;;;;;15.57;2.33;;;22.50;84.50;;;;;;5055767;28;20249;-70
2022/12/26 11:18:39;;;;;;;12.10;3.10;;;22.50;84.60;;;;;;5055722;28;20668;-69
2022/12/26 11:21:20;;;;;;;14.37;2.63;;;22.40;84.80;;;;;;5055527;28;20214;-77
2022/12/26 11:23:54;;;;;;;15.83;2.93;;;22.50;84.80;;;;;;5052460;28;20770;-76
2022/12/26 11:26:29;;;;;;;11.33;2.27;;;22.40;85.00;;;;;;5046850;28;20179;-74
2022/12/26 11:29:17;;;;;;;10.53;2.30;;;22.40;84.90;;;;;;5055609;28;20175;-73
2022/12/26 11:31:58;;;;;;;15.70;2.40;;;22.50;84.80;;;;;;5055557;28;20242;-76
2022/12/26 11:34:44;;;;;;;13.50;2.40;;;22.40;85.10;;;;;;5055829;28;20176;-72
2022/12/26 11:37:39;;;;;;;11.00;2.40;;;22.40;85.20;;;;;;5049928;28;20286;-74
2022/12/26 11:40:15;;;;;;;11.43;2.20;;;22.30;85.30;;;;;;5053426;28;20192;-72
2022/12/26 11:42:43;;;;;;;18.27;3.13;;;22.30;85.40;;;;;;5055497;28;20278;-72
2022/12/26 11:45:12;;;;;;;15.60;3.40;;;22.30;85.50;;;;;;5042068;28;20634;-77
2022/12/26 11:47:45;;;;;;;13.20;2.77;;;22.30;85.40;;;;;;5055223;28;20549;-78
2022/12/26 11:50:20;;;;;;;17.97;2.50;;;22.30;85.50;;;;;;5055051;28;20717;-78
2022/12/26 11:52:56;;;;;;;12.97;2.73;;;22.30;85.40;;;;;;5055249;28;20178;-70
2022/12/26 11:55:26;;;;;;;12.10;2.43;;;22.20;85.40;;;;;;5053433;28;20183;-69
2022/12/26 11:58:08;;;;;;;14.80;3.03;;;22.20;85.60;;;;;;5054937;28;20642;-71
2022/12/26 12:00:43;;;;;;;9.03;2.53;;;22.20;85.90;;;;;;5055320;28;20184;-69
2022/12/26 12:03:31;;;;;;;15.47;2.20;;;22.20;85.80;;;;;;5053811;28;20313;-74
2022/12/26 12:06:33;;;;;;;12.17;2.70;;;22.20;85.70;;;;;;5054478;28;20657;-79
2022/12/26 12:09:18;;;;;;;11.67;2.40;;;22.20;85.90;;;;;;5053609;28;20271;-72
2022/12/26 12:11:45;;;;;;;12.10;2.57;;;22.10;85.90;;;;;;5055410;28;20237;-77
2022/12/26 12:14:32;;;;;;;18.80;2.83;;;22.20;86.00;;;;;;5054768;28;20183;-78
2022/12/26 12:17:25;;;;;;;11.13;1.87;;;22.10;85.90;;;;;;5053293;28;20528;-69
2022/12/26 12:20:10;;;;;;;16.17;2.50;;;22.10;86.10;;;;;;5054451;28;20188;-74
2022/12/26 12:22:52;;;;;;;12.10;2.73;;;22.00;86.20;;;;;;5053922;28;20662;-75
2022/12/26 12:25:41;;;;;;;14.23;2.73;;;22.10;86.50;;;;;;5036974;28;20541;-68
2022/12/26 12:28:08;;;;;;;13.17;2.30;;;22.10;86.50;;;;;;5053225;28;20589;-69
2022/12/26 12:30:51;;;;;;;15.23;2.30;;;22.10;86.40;;;;;;5048806;28;20215;-81
2022/12/26 12:33:33;;;;;;;11.03;2.53;;;22.10;86.60;;;;;;5054242;28;20176;-85
2022/12/26 12:36:09;;;;;;;15.93;3.00;;;22.10;86.50;;;;;;5054337;28;20641;-84
2022/12/26 12:38:49;;;;;;;13.83;2.50;;;22.00;86.50;;;;;;5054288;28;20198;-81
2022/12/26 12:41:16;;;;;;;14.13;2.77;;;22.00;86.70;;;;;;5053150;28;20194;-80
2022/12/26 12:44:08;;;;;;;11.37;2.90;;;21.90;86.90;;;;;;5053773;28;20575;-82
2022/12/26 12:46:57;;;;;;;13.20;3.27;;;21.90;86.90;;;;;;5054606;28;20179;-76
2022/12/26 12:49:42;;;;;;;13.93;3.03;;;21.90;87.00;;;;;;5041192;28;20255;-82
2022/12/26 12:52:47;;;;;;;12.17;2.77;;;21.80;87.10;;;;;;5041904;28;20200;-82
2022/12/26 12:55:22;;;;;;;11.33;2.63;;;21.80;87.10;;;;;;5052415;28;20175;-85
2022/12/26 12:58:00;;;;;;;13.73;2.33;;;21.80;87.10;;;;;;5051151;28;20179;-70
2022/12/26 13:01:14;;;;;;;19.40;2.83;;;21.80;87.30;;;;;;5053557;28;20221;-76
2022/12/26 13:04:05;;;;;;;13.77;2.67;;;21.80;87.20;;;;;;5053539;28;20220;-81
2022/12/26 13:06:57;;;;;;;15.30;2.53;;;21.80;87.50;;;;;;5054075;28;20172;-73
2022/12/26 13:09:56;;;;;;;13.37;2.77;;;21.80;87.70;;;;;;5049825;28;20215;-71
2022/12/26 13:12:35;;;;;;;13.10;2.80;;;21.80;87.60;;;;;;5034395;28;20250;-73
2022/12/26 13:15:29;;;;;;;14.17;3.00;;;21.80;87.70;;;;;;5052183;28;20262;-76
2022/12/26 13:18:12;;;;;;;18.27;2.87;;;21.80;87.90;;;;;;5045587;28;20196;-77
2022/12/26 13:20:50;;;;;;;14.90;2.87;;;21.80;87.90;;;;;;5053630;28;20175;-72
2022/12/26 13:26:21;;;;;;;44.97;26.43;;;21.80;88.10;;;;;;5052531;28;20555;-69
2022/12/26 13:29:07;;;;;;;16.70;4.37;;;21.70;88.00;;;;;;5047915;28;20176;-67
2022/12/26 13:31:39;;;;;;;9.93;2.77;;;21.70;88.00;;;;;;5036991;28;20167;-74
2022/12/26 13:34:13;;;;;;;15.40;6.87;;;21.70;87.90;;;;;;5053673;28;20318;-70
2022/12/26 13:36:47;;;;;;;17.33;3.33;;;21.70;88.10;;;;;;5053399;28;20175;-70
2022/12/26 13:39:20;;;;;;;10.97;2.80;;;21.60;88.20;;;;;;5053387;28;20258;-72
2022/12/26 13:44:51;;;;;;;13.30;2.50;;;21.60;88.10;;;;;;5052249;28;20294;-73
2022/12/26 13:47:38;;;;;;;14.13;2.90;;;21.60;88.30;;;;;;5052767;28;20631;-73
2022/12/26 13:50:42;;;;;;;16.27;2.77;;;21.70;88.70;;;;;;5052672;28;20219;-68
2022/12/26 13:53:24;;;;;;;12.10;2.53;;;21.70;88.50;;;;;;5053175;28;20171;-73
2022/12/26 13:56:03;;;;;;;11.17;2.80;;;21.60;88.40;;;;;;5051454;28;20191;-70
2022/12/26 13:58:48;;;;;;;11.43;2.60;;;21.50;88.50;;;;;;5045759;28;20567;-70
2022/12/26 14:01:34;;;;;;;14.20;2.53;;;21.70;89.00;;;;;;5052261;28;20670;-76
2022/12/26 14:04:25;;;;;;;14.10;2.80;;;21.60;88.50;;;;;;5052218;28;20191;-78
2022/12/26 14:06:55;;;;;;;12.10;3.10;;;21.50;88.60;;;;;;5046407;28;20176;-79
2022/12/26 14:09:35;;;;;;;13.87;2.90;;;21.50;88.70;;;;;;5043796;28;20188;-74
2022/12/26 14:12:29;;;;;;;8.47;2.20;;;21.50;88.90;;;;;;5043756;28;20212;-75
2022/12/26 14:15:25;;;;;;;14.60;2.97;;;21.60;88.40;;;;;;5051063;28;20718;-70
2022/12/26 14:17:52;;;;;;;12.57;2.90;;;21.60;88.40;;;;;;5042453;28;20180;-70
2022/12/26 14:20:41;;;;;;;15.70;2.77;;;21.50;88.50;;;;;;5032566;28;20177;-67
2022/12/26 14:23:26;;;;;;;12.93;2.83;;;21.60;88.60;;;;;;5032868;28;20676;-70
2022/12/26 14:26:21;;;;;;;10.80;2.77;;;21.60;88.40;;;;;;5041916;28;20191;-69
2022/12/26 14:29:23;;;;;;;13.00;2.83;;;21.60;88.50;;;;;;5050967;28;20544;-71
2022/12/26 14:32:15;;;;;;;10.03;2.47;;;21.60;88.80;;;;;;5052651;28;20180;-78
2022/12/26 14:34:57;;;;;;;9.70;2.03;;;21.50;88.50;;;;;;5052227;28;20187;-71
2022/12/26 14:37:48;;;;;;;12.70;3.27;;;21.50;88.60;;;;;;5040813;28;20185;-72
2022/12/26 14:40:26;;;;;;;14.90;2.77;;;21.50;88.80;;;;;;5045899;28;20265;-70
2022/12/26 14:43:24;;;;;;;15.10;3.23;;;21.40;89.00;;;;;;5036658;28;20299;-71
2022/12/26 14:45:53;;;;;;;8.67;2.50;;;21.40;88.90;;;;;;5042241;28;20184;-71
2022/12/26 14:48:23;;;;;;;11.43;2.40;;;21.30;88.80;;;;;;5052161;28;20176;-73
2022/12/26 14:50:55;;;;;;;13.90;3.23;;;21.30;88.90;;;;;;5051566;28;20282;-70
2022/12/26 14:53:28;;;;;;;15.90;2.47;;;21.30;88.80;;;;;;5051916;28;20229;-71
2022/12/26 14:56:00;;;;;;;12.13;2.67;;;21.20;89.00;;;;;;5051706;28;20175;-71
2022/12/26 14:58:45;;;;;;;9.90;2.80;;;21.20;89.00;;;;;;5046579;28;20231;-71
2022/12/26 15:01:16;;;;;;;18.40;2.80;;;21.10;89.00;;;;;;5052002;28;20187;-70
2022/12/26 15:03:46;;;;;;;12.03;2.60;;;21.00;89.20;;;;;;5051048;28;20260;-73
2022/12/26 15:06:19;;;;;;;15.33;3.10;;;20.90;89.40;;;;;;5047858;28;20680;-71
2022/12/26 15:09:10;;;;;;;11.40;2.97;;;20.90;89.60;;;;;;5051620;28;20180;-70
2022/12/26 15:12:02;;;;;;;10.53;3.30;;;21.00;89.80;;;;;;5050565;28;20184;-72
2022/12/26 15:14:58;;;;;;;13.63;3.00;;;21.00;89.80;;;;;;5049885;28;20199;-70
2022/12/26 15:17:46;;;;;;;17.00;3.13;;;21.10;89.80;;;;;;5051736;28;20223;-70
2022/12/26 15:21:02;;;;;;;11.87;2.50;;;21.00;89.60;;;;;;5052164;28;20707;-68
2022/12/26 15:24:00;;;;;;;13.33;3.20;;;21.00;89.90;;;;;;5051656;28;20212;-71
2022/12/26 15:26:56;;;;;;;8.93;2.60;;;21.00;90.00;;;;;;5050427;28;20546;-72
2022/12/26 15:29:46;;;;;;;14.43;3.03;;;21.10;89.80;;;;;;5055057;28;20272;-70
2022/12/26 15:32:36;;;;;;;11.80;2.83;;;21.10;89.80;;;;;;5054044;28;20191;-70
2022/12/26 15:35:25;;;;;;;9.13;2.77;;;21.10;89.80;;;;;;5067363;28;20795;-71
2022/12/26 15:38:07;;;;;;;10.10;2.57;;;21.10;89.80;;;;;;5055854;28;20205;-71